Time;durP1;ratioP1;P1;durP2;ratioP2;P2;SDS_P1;SDS_P2;PMS_P1;PMS_P2;Temp;Humidity;BMP_temperature;BMP_pressure;BME280_temperature;BME280_humidity;BME280_pressure;Samples;Min_cycle;Max_cycle;Signal;HPM_P1;HPM_P2
2022/06/19 00:00:08;;;;;;;4.10;2.80;;;;;;;16.34;58.82;99643.31;1781738;80;21268;-41
2022/06/19 00:02:38;;;;;;;3.50;2.80;;;;;;;16.31;59.07;99644.11;1782031;80;20945;-41
2022/06/19 00:05:06;;;;;;;5.08;2.70;;;;;;;16.27;59.22;99641.93;1781826;80;20950;-42
2022/06/19 00:07:34;;;;;;;3.92;3.00;;;;;;;16.25;59.43;99641.55;1751352;80;21041;-41
2022/06/19 00:10:02;;;;;;;4.10;2.85;;;;;;;16.23;59.51;99642.52;1781701;80;21246;-41
2022/06/19 00:12:30;;;;;;;2.90;2.50;;;;;;;16.22;59.75;99642.31;1781983;80;21512;-41
2022/06/19 00:14:57;;;;;;;4.17;2.50;;;;;;;16.23;59.96;99642.52;1781795;80;21774;-41
2022/06/19 00:17:25;;;;;;;6.08;2.67;;;;;;;16.26;60.08;99643.91;1781755;80;21073;-41
2022/06/19 00:19:52;;;;;;;6.00;2.40;;;;;;;16.29;59.94;99640.38;1781694;80;21527;-41
2022/06/19 00:22:20;;;;;;;4.22;2.70;;;;;;;16.28;59.77;99642.13;1781765;80;21043;-41
2022/06/19 00:24:47;;;;;;;5.00;2.58;;;;;;;16.28;59.86;99644.87;1781835;80;21093;-41
2022/06/19 00:27:14;;;;;;;4.97;2.77;;;;;;;16.29;60.21;99645.07;1781796;80;21527;-41
2022/06/19 00:29:41;;;;;;;2.98;2.58;;;;;;;16.30;60.33;99638.44;1777147;80;21031;-41
2022/06/19 00:32:09;;;;;;;4.67;2.60;;;;;;;16.29;60.34;99643.70;1781797;80;21583;-41
2022/06/19 00:34:36;;;;;;;3.65;2.58;;;;;;;16.27;60.49;99644.08;1781968;80;21696;-41
2022/06/19 00:37:05;;;;;;;4.22;2.83;;;;;;;16.27;60.77;99646.03;1782096;80;21547;-41
2022/06/19 00:39:32;;;;;;;2.52;2.33;;;;;;;16.26;60.93;99647.23;1781918;80;20961;-41
2022/06/19 00:42:00;;;;;;;3.45;2.42;;;;;;;16.25;60.97;99649.77;1782167;80;20953;-41
2022/06/19 00:44:27;;;;;;;4.22;2.58;;;;;;;16.23;60.96;99647.99;1782058;80;21076;-41
2022/06/19 00:47:23;;;;;;;5.05;2.80;;;;;;;16.21;60.99;99647.62;1782094;80;21029;-42
2022/06/19 00:50:01;;;;;;;4.10;2.52;;;;;;;16.17;60.95;99646.84;1782271;80;21238;-41
2022/06/19 00:52:35;;;;;;;3.33;2.72;;;;;;;16.08;61.04;99641.14;1781821;80;20946;-41
2022/06/19 00:55:24;;;;;;;4.08;2.40;;;;;;;16.05;61.25;99651.50;1781923;80;21076;-41
2022/06/19 00:58:08;;;;;;;3.60;2.60;;;;;;;16.04;61.35;99647.20;1781315;80;20973;-41
2022/06/19 01:00:36;;;;;;;6.08;2.50;;;;;;;16.06;61.76;99648.19;1781851;80;21001;-41
2022/06/19 01:03:13;;;;;;;5.58;2.60;;;;;;;16.10;61.86;99636.66;1781786;80;21237;-41
2022/06/19 01:05:42;;;;;;;7.87;2.35;;;;;;;16.12;61.91;99636.28;1781944;80;21779;-41
2022/06/19 01:08:09;;;;;;;3.40;2.40;;;;;;;16.13;61.99;99639.19;1781959;80;21658;-41
2022/06/19 01:10:40;;;;;;;5.97;2.50;;;;;;;16.14;61.88;99630.60;1781929;80;20926;-42
2022/06/19 01:13:08;;;;;;;3.90;2.80;;;;;;;16.16;61.75;99631.59;1781892;80;21076;-41
2022/06/19 01:15:37;;;;;;;3.33;2.65;;;;;;;16.14;61.68;99631.19;1782143;80;21034;-41
2022/06/19 01:18:06;;;;;;;4.60;2.70;;;;;;;16.11;61.50;99630.61;1751975;80;21520;-41
2022/06/19 01:20:34;;;;;;;5.05;2.80;;;;;;;16.06;61.59;99629.83;1782197;80;20997;-41
2022/06/19 01:23:25;;;;;;;5.12;2.90;;;;;;;16.05;61.86;99635.09;1781895;80;21037;-41
2022/06/19 01:25:52;;;;;;;5.08;2.75;;;;;;;16.04;61.89;99639.58;1781994;80;21559;-41
2022/06/19 01:31:20;;;;;;;3.92;2.47;;;;;;;16.00;62.27;99628.64;1781796;80;20969;-41
2022/06/19 01:33:59;;;;;;;5.65;2.60;;;;;;;16.04;62.37;99633.52;1781838;80;20957;-41
2022/06/19 01:36:27;;;;;;;4.37;2.83;;;;;;;16.11;62.52;99631.97;1782516;80;21072;-41
2022/06/19 01:38:55;;;;;;;4.58;2.77;;;;;;;16.16;62.70;99637.06;1782102;80;21033;-41
2022/06/19 01:41:31;;;;;;;3.83;2.60;;;;;;;16.20;62.59;99638.62;1782178;80;21933;-41
2022/06/19 01:43:58;;;;;;;3.12;2.52;;;;;;;16.26;62.48;99653.48;1782078;80;20949;-41
2022/06/19 01:46:27;;;;;;;4.60;2.87;;;;;;;16.30;62.92;99650.75;1777768;80;20993;-41
2022/06/19 01:48:54;;;;;;;3.95;2.85;;;;;;;16.35;63.34;99651.73;1773854;80;21041;-41
2022/06/19 01:51:21;;;;;;;4.87;2.85;;;;;;;16.38;63.40;99652.30;1773487;80;21020;-41
2022/06/19 01:54:03;;;;;;;5.03;2.55;;;;;;;16.37;63.52;99649.36;1773511;80;21136;-41
2022/06/19 01:56:31;;;;;;;3.45;2.75;;;;;;;16.40;63.65;99647.23;1773610;80;20969;-41
2022/06/19 01:59:02;;;;;;;4.45;2.87;;;;;;;16.46;63.33;99646.42;1773537;80;21014;-41
2022/06/19 02:01:30;;;;;;;5.75;2.65;;;;;;;16.52;63.25;99642.72;1773582;80;21037;-41
2022/06/19 02:03:58;;;;;;;3.85;2.80;;;;;;;16.56;63.11;99646.23;1773648;80;21613;-41
2022/06/19 02:06:31;;;;;;;4.65;2.80;;;;;;;16.57;62.81;99650.53;1751587;80;22154;-41
2022/06/19 02:09:00;;;;;;;4.62;2.67;;;;;;;16.58;62.52;99654.88;1773423;80;20962;-41
2022/06/19 02:11:27;;;;;;;4.27;2.73;;;;;;;16.58;62.26;99658.16;1773867;80;20981;-41
2022/06/19 02:13:57;;;;;;;5.90;2.92;;;;;;;16.58;62.19;99658.97;1751177;80;21857;-41
2022/06/19 02:16:23;;;;;;;3.10;2.75;;;;;;;16.58;62.14;99658.97;1773512;80;20995;-41
2022/06/19 02:18:52;;;;;;;7.33;2.85;;;;;;;16.59;62.11;99657.81;1773656;80;21128;-41
2022/06/19 02:21:41;;;;;;;3.72;2.95;;;;;;;16.58;62.11;99663.08;1773891;80;20979;-41
2022/06/19 02:24:12;;;;;;;4.42;2.75;;;;;;;16.56;62.17;99662.65;1773489;80;21058;-41
2022/06/19 02:26:42;;;;;;;4.12;3.00;;;;;;;16.52;62.07;99653.66;1773650;80;21615;-41
2022/06/19 02:29:10;;;;;;;5.00;2.75;;;;;;;16.51;61.99;99663.04;1773700;80;21527;-41
2022/06/19 02:31:41;;;;;;;5.23;2.63;;;;;;;16.53;62.23;99656.59;1774350;80;21785;-41
2022/06/19 02:34:24;;;;;;;3.92;2.62;;;;;;;16.55;62.20;99662.48;1773630;80;20918;-41
2022/06/19 02:36:57;;;;;;;4.47;2.65;;;;;;;16.60;62.14;99668.95;1765981;80;20947;-41
2022/06/19 02:39:47;;;;;;;3.10;2.67;;;;;;;16.62;62.27;99663.86;1773714;80;21034;-41
2022/06/19 02:42:38;;;;;;;3.95;2.90;;;;;;;16.67;62.26;99666.20;1773140;80;21057;-41
2022/06/19 02:45:20;;;;;;;3.98;2.72;;;;;;;16.70;62.42;99667.39;1773372;80;20965;-41
2022/06/19 02:47:51;;;;;;;5.20;3.00;;;;;;;16.71;62.27;99673.81;1778882;80;21499;-41
2022/06/19 02:50:23;;;;;;;3.67;2.97;;;;;;;16.70;62.07;99664.03;1779766;80;21578;-41
2022/06/19 02:52:51;;;;;;;4.40;3.25;;;;;;;16.73;62.11;99660.53;1779455;80;21053;-41
2022/06/19 02:55:19;;;;;;;4.83;3.02;;;;;;;16.75;62.15;99655.42;1779513;80;21013;-41
2022/06/19 02:57:46;;;;;;;4.05;3.15;;;;;;;16.78;62.45;99658.77;1779334;80;22061;-41
2022/06/19 03:00:21;;;;;;;3.87;2.80;;;;;;;16.83;62.53;99654.26;1779199;80;20969;-42
2022/06/19 03:02:52;;;;;;;4.72;3.10;;;;;;;16.91;62.41;99655.80;1779495;80;20925;-42
2022/06/19 03:05:23;;;;;;;5.22;3.50;;;;;;;17.01;61.84;99657.53;1779302;80;21473;-42
2022/06/19 03:07:50;;;;;;;4.85;2.90;;;;;;;17.06;61.58;99651.66;1779432;80;21017;-42
2022/06/19 03:10:18;;;;;;;4.67;3.42;;;;;;;17.12;61.41;99652.23;1779287;80;21958;-42
2022/06/19 03:12:46;;;;;;;4.65;3.70;;;;;;;17.10;61.09;99649.09;1779329;80;20977;-42
2022/06/19 03:15:14;;;;;;;3.95;3.22;;;;;;;17.05;60.94;99645.98;1778999;80;21496;-42
2022/06/19 03:17:41;;;;;;;3.92;3.47;;;;;;;17.02;61.30;99646.78;1779270;80;20986;-42
2022/06/19 03:20:12;;;;;;;5.03;3.70;;;;;;;17.06;61.34;99643.44;1779285;80;20980;-42
2022/06/19 03:22:39;;;;;;;6.45;3.40;;;;;;;17.10;61.27;99634.61;1779351;80;21804;-42
2022/06/19 03:25:07;;;;;;;6.25;3.27;;;;;;;17.19;61.01;99637.71;1779096;80;20914;-42
2022/06/19 03:27:34;;;;;;;4.45;2.65;;;;;;;17.26;60.87;99633.59;1779421;80;21012;-42
2022/06/19 03:30:04;;;;;;;3.77;3.00;;;;;;;17.35;60.58;99633.94;1779561;80;21020;-42
2022/06/19 03:32:32;;;;;;;5.95;3.40;;;;;;;17.42;60.35;99630.41;1779523;80;21040;-42
2022/06/19 03:34:59;;;;;;;4.70;3.30;;;;;;;17.46;60.38;99636.05;1779463;80;21891;-42
2022/06/19 03:37:27;;;;;;;5.28;3.45;;;;;;;17.53;60.48;99633.27;1779398;80;20961;-42
2022/06/19 03:39:54;;;;;;;6.67;3.80;;;;;;;17.60;60.72;99633.27;1779619;80;21017;-42
2022/06/19 03:42:21;;;;;;;6.58;4.53;;;;;;;17.72;60.87;99629.27;1779533;80;21375;-42
2022/06/19 03:44:49;;;;;;;7.30;5.25;;;;;;;17.81;60.97;99626.28;1779218;80;21452;-42
2022/06/19 03:47:21;;;;;;;8.25;4.90;;;;;;;17.89;61.05;99624.88;1779189;80;21166;-42
2022/06/19 03:49:48;;;;;;;8.03;4.60;;;;;;;17.95;61.02;99626.80;1773076;80;20921;-42
2022/06/19 03:52:15;;;;;;;6.90;4.33;;;;;;;18.04;61.15;99626.34;1779211;80;21256;-42
2022/06/19 03:54:43;;;;;;;7.25;4.37;;;;;;;18.12;61.48;99627.84;1779231;80;20983;-42
2022/06/19 03:57:12;;;;;;;8.15;4.00;;;;;;;18.20;61.92;99624.64;1779120;80;21080;-42
2022/06/19 03:59:40;;;;;;;7.28;4.05;;;;;;;18.29;62.04;99624.20;1779366;80;21233;-42
2022/06/19 04:02:08;;;;;;;5.55;3.50;;;;;;;18.36;62.31;99620.00;1779174;80;20997;-42
2022/06/19 04:04:41;;;;;;;3.65;3.12;;;;;;;18.45;62.50;99624.44;1779158;80;21282;-42
2022/06/19 04:07:10;;;;;;;5.20;3.30;;;;;;;18.55;62.58;99630.45;1779446;80;21033;-42
2022/06/19 04:09:37;;;;;;;5.28;3.10;;;;;;;18.65;62.16;99635.66;1779557;80;21057;-42
2022/06/19 04:12:06;;;;;;;4.40;3.00;;;;;;;18.74;61.25;99630.47;1779591;80;21228;-42
2022/06/19 04:14:33;;;;;;;4.65;3.05;;;;;;;18.79;61.30;99639.64;1779599;80;21006;-42
2022/06/19 04:17:01;;;;;;;4.78;3.02;;;;;;;18.86;61.49;99634.68;1779572;80;21554;-42
2022/06/19 04:19:29;;;;;;;4.50;3.05;;;;;;;18.94;61.30;99630.66;1779732;80;21060;-42
2022/06/19 04:21:56;;;;;;;3.40;2.77;;;;;;;19.01;61.18;99629.23;1779672;80;21017;-42
2022/06/19 04:24:23;;;;;;;3.67;3.30;;;;;;;19.09;61.19;99629.32;1779362;80;22069;-42
2022/06/19 04:26:50;;;;;;;5.42;2.60;;;;;;;19.17;61.38;99634.91;1779434;80;21521;-42
2022/06/19 04:29:18;;;;;;;3.35;2.50;;;;;;;19.28;60.85;99635.58;1779447;80;20945;-42
2022/06/19 04:31:47;;;;;;;3.92;2.80;;;;;;;19.40;59.88;99635.05;1779329;80;21072;-42
2022/06/19 04:34:14;;;;;;;2.72;2.42;;;;;;;19.53;59.05;99626.45;1779377;80;21037;-42
2022/06/19 04:36:41;;;;;;;2.80;2.37;;;;;;;19.61;58.33;99629.88;1779574;80;21129;-42
2022/06/19 04:39:08;;;;;;;4.83;2.87;;;;;;;19.69;58.46;99631.95;1779612;80;21079;-42
2022/06/19 04:41:38;;;;;;;3.67;2.52;;;;;;;19.80;58.85;99635.34;1779466;80;21828;-42
2022/06/19 04:44:06;;;;;;;;;;;;;;;19.94;58.97;99636.51;1781853;80;21580;-42
2022/06/19 04:46:34;;;;;;;3.85;2.40;;;;;;;20.05;58.91;99637.11;1778738;80;20175;-42
2022/06/19 04:49:01;;;;;;;5.37;2.20;;;;;;;20.08;58.56;99643.17;1773728;80;21350;-42
2022/06/19 04:51:29;;;;;;;5.08;2.37;;;;;;;20.19;58.87;99647.90;1773641;80;21008;-42
2022/06/19 04:53:56;;;;;;;2.92;1.90;;;;;;;20.31;58.61;99647.95;1773634;80;20933;-42
2022/06/19 04:56:24;;;;;;;3.83;2.37;;;;;;;20.43;58.43;99652.86;1773608;80;21020;-42
2022/06/19 04:58:52;;;;;;;3.72;2.40;;;;;;;20.54;58.12;99656.22;1773658;80;21025;-42
2022/06/19 05:01:25;;;;;;;5.55;2.58;;;;;;;20.63;57.49;99651.54;1773665;80;21242;-42
2022/06/19 05:03:56;;;;;;;3.95;2.37;;;;;;;20.69;57.23;99647.89;1773646;80;21021;-42
2022/06/19 05:06:23;;;;;;;3.67;2.40;;;;;;;20.79;56.67;99650.28;1773959;80;20997;-42
2022/06/19 05:08:51;;;;;;;3.27;2.15;;;;;;;20.85;56.58;99654.12;1773769;80;20957;-42
2022/06/19 05:11:18;;;;;;;4.15;2.22;;;;;;;20.90;55.96;99653.63;1773577;80;21587;-42
2022/06/19 05:13:47;;;;;;;3.60;2.55;;;;;;;20.94;55.34;99664.58;1773943;80;20930;-42
2022/06/19 05:16:18;;;;;;;2.95;2.12;;;;;;;20.96;55.67;99670.47;1773479;80;21025;-42
2022/06/19 05:18:45;;;;;;;5.33;2.60;;;;;;;20.98;55.93;99664.70;1773637;80;20996;-42
2022/06/19 05:21:13;;;;;;;4.22;2.22;;;;;;;20.98;54.39;99661.94;1773662;80;21085;-42
2022/06/19 05:23:44;;;;;;;2.37;2.17;;;;;;;20.99;54.44;99662.12;1773887;80;21029;-42
2022/06/19 05:26:23;;;;;;;2.85;2.40;;;;;;;21.03;55.05;99667.56;1773676;80;20997;-42
2022/06/19 05:28:51;;;;;;;4.87;2.70;;;;;;;21.05;55.37;99663.20;1773696;80;21542;-42
2022/06/19 05:31:18;;;;;;;3.12;2.40;;;;;;;21.07;54.23;99660.78;1773742;80;21519;-42
2022/06/19 05:33:46;;;;;;;4.42;2.08;;;;;;;21.07;54.05;99662.16;1773739;80;21002;-42
2022/06/19 05:36:13;;;;;;;2.17;1.98;;;;;;;21.08;53.66;99658.20;1773934;80;21053;-42
2022/06/19 05:38:41;;;;;;;2.47;2.00;;;;;;;21.12;54.19;99668.56;1773882;80;21164;-43
2022/06/19 05:41:07;;;;;;;4.50;2.27;;;;;;;21.17;53.75;99668.70;1773643;80;21053;-42
2022/06/19 05:43:35;;;;;;;4.58;2.05;;;;;;;21.23;53.45;99669.17;1751783;80;21499;-43
2022/06/19 05:46:15;;;;;;;4.25;1.92;;;;;;;21.31;53.37;99666.26;1773499;80;21073;-42
2022/06/19 05:48:42;;;;;;;2.65;1.87;;;;;;;21.37;52.71;99663.97;1778876;80;21016;-42
2022/06/19 05:51:16;;;;;;;4.60;2.30;;;;;;;21.43;52.04;99660.91;1779514;80;21555;-42
2022/06/19 05:53:46;;;;;;;2.65;2.10;;;;;;;21.48;52.16;99662.38;1774176;80;20905;-43
2022/06/19 05:56:13;;;;;;;3.22;2.12;;;;;;;21.55;52.51;99661.62;1748522;82;21519;-43
2022/06/19 05:58:46;;;;;;;2.35;1.98;;;;;;;21.64;52.29;99669.31;1748565;82;20985;-42
2022/06/19 06:01:12;;;;;;;4.10;1.90;;;;;;;21.75;51.98;99663.58;1747999;82;21488;-42
2022/06/19 06:03:41;;;;;;;2.75;1.80;;;;;;;21.84;51.57;99668.69;1745835;82;21803;-43
2022/06/19 06:06:15;;;;;;;7.05;1.70;;;;;;;21.91;51.82;99658.88;1748700;82;21019;-43
2022/06/19 06:08:43;;;;;;;2.47;1.70;;;;;;;22.03;50.14;99660.20;1748748;82;20909;-42
2022/06/19 06:11:10;;;;;;;2.05;1.80;;;;;;;22.14;50.26;99658.59;1748544;82;21084;-43
2022/06/19 06:13:39;;;;;;;2.77;1.72;;;;;;;22.25;50.45;99658.52;1748723;82;21813;-42
2022/06/19 06:16:06;;;;;;;2.77;1.67;;;;;;;22.35;49.80;99662.23;1748394;82;23185;-43
2022/06/19 06:18:35;;;;;;;2.20;1.60;;;;;;;22.46;49.66;99654.47;1748502;82;21578;-43
2022/06/19 06:21:06;;;;;;;7.47;1.70;;;;;;;22.55;49.31;99657.40;1748526;82;20965;-43
2022/06/19 06:23:33;;;;;;;1.85;1.50;;;;;;;22.66;48.17;99654.34;1748815;82;20949;-43
2022/06/19 06:26:10;;;;;;;1.92;1.65;;;;;;;22.74;47.87;99651.02;1748542;82;21009;-43
2022/06/19 06:28:40;;;;;;;2.58;1.85;;;;;;;22.82;47.52;99659.28;1748517;82;21231;-43
2022/06/19 06:31:08;;;;;;;2.20;1.45;;;;;;;22.91;47.04;99659.44;1748514;82;21801;-43
2022/06/19 06:33:36;;;;;;;1.47;1.37;;;;;;;22.99;46.88;99653.13;1748633;82;21527;-43
2022/06/19 06:36:04;;;;;;;1.70;1.30;;;;;;;23.06;47.07;99654.30;1748687;82;20993;-43
2022/06/19 06:38:31;;;;;;;2.77;1.70;;;;;;;23.15;47.17;99664.72;1748707;82;21056;-43
2022/06/19 06:41:00;;;;;;;3.45;1.50;;;;;;;23.22;47.24;99655.64;1748700;82;21208;-43
2022/06/19 06:43:27;;;;;;;2.87;1.62;;;;;;;23.31;46.63;99656.38;1748306;82;21499;-43
2022/06/19 06:45:54;;;;;;;2.52;1.72;;;;;;;23.38;46.21;99657.58;1748673;82;21087;-43
2022/06/19 06:48:22;;;;;;;2.37;1.85;;;;;;;23.46;45.70;99657.56;1722911;81;20945;-43
2022/06/19 06:50:49;;;;;;;2.75;1.50;;;;;;;23.53;45.86;99651.80;1753261;81;21060;-43
2022/06/19 06:53:17;;;;;;;2.98;1.40;;;;;;;23.60;44.52;99648.06;1753188;81;21133;-43
2022/06/19 06:55:45;;;;;;;2.27;1.50;;;;;;;23.66;45.30;99652.63;1753181;81;20977;-42
2022/06/19 06:58:12;;;;;;;2.87;1.30;;;;;;;23.74;44.27;99644.27;1753085;81;21059;-42
2022/06/19 07:00:40;;;;;;;2.95;1.92;;;;;;;23.81;44.03;99642.67;1753006;81;21092;-43
2022/06/19 07:03:08;;;;;;;4.53;1.20;;;;;;;23.89;43.39;99636.91;1753077;81;21091;-43
2022/06/19 07:05:36;;;;;;;1.80;1.40;;;;;;;23.99;43.06;99644.11;1753239;81;20972;-43
2022/06/19 07:08:05;;;;;;;3.17;1.30;;;;;;;24.05;42.73;99638.19;1753005;81;21045;-43
2022/06/19 07:10:32;;;;;;;2.25;1.30;;;;;;;24.10;42.18;99633.47;1752953;81;21048;-43
2022/06/19 07:13:03;;;;;;;1.80;1.20;;;;;;;24.15;42.07;99629.55;1753138;81;21056;-43
2022/06/19 07:15:33;;;;;;;1.62;1.20;;;;;;;24.21;41.44;99626.99;1752875;81;21388;-43
2022/06/19 07:18:00;;;;;;;1.72;1.25;;;;;;;24.28;40.37;99623.23;1752994;81;21254;-43
2022/06/19 07:20:28;;;;;;;4.70;1.15;;;;;;;24.34;41.39;99618.07;1752767;81;20964;-43
2022/06/19 07:22:56;;;;;;;2.47;1.40;;;;;;;24.41;40.98;99609.50;1753017;81;20929;-43
2022/06/19 07:25:23;;;;;;;2.20;1.52;;;;;;;24.49;41.11;99612.22;1752959;81;21096;-43
2022/06/19 07:27:51;;;;;;;1.98;1.45;;;;;;;24.61;41.82;99602.30;1752920;81;21032;-43
2022/06/19 07:30:22;;;;;;;3.02;1.12;;;;;;;24.71;40.42;99606.70;1753117;81;21649;-43
2022/06/19 07:32:51;;;;;;;4.87;1.37;;;;;;;24.77;40.30;99597.20;1753046;81;20910;-43
2022/06/19 07:35:18;;;;;;;2.35;1.57;;;;;;;24.79;39.52;99594.12;1752980;81;21023;-43
2022/06/19 07:37:46;;;;;;;1.95;1.25;;;;;;;24.88;40.04;99594.87;1752927;81;21391;-43
2022/06/19 07:40:15;;;;;;;3.98;1.37;;;;;;;24.97;39.81;99597.70;1752970;81;21187;-43
2022/06/19 07:42:43;;;;;;;1.65;1.30;;;;;;;25.04;38.70;99605.76;1753200;81;21122;-43
2022/06/19 07:45:11;;;;;;;3.47;1.27;;;;;;;25.10;39.17;99591.47;1753257;81;20972;-43
2022/06/19 07:50:26;;;;;;;1.82;1.20;;;;;;;25.31;38.61;99592.08;1750405;81;21056;-43
2022/06/19 07:52:54;;;;;;;1.80;1.15;;;;;;;25.36;37.27;99579.00;1751558;82;21024;-43
2022/06/19 07:55:27;;;;;;;2.87;1.00;;;;;;;25.39;37.48;99586.41;1751346;82;21492;-43
2022/06/19 07:57:55;;;;;;;1.40;1.00;;;;;;;25.46;36.03;99590.93;1751193;82;21530;-43
2022/06/19 08:01:53;;;;;;;1.50;1.10;;;;;;;25.63;36.04;99588.71;1778877;79;22530;-42
2022/06/19 08:04:21;;;;;;;1.98;1.27;;;;;;;25.62;35.54;99591.33;1738775;82;20923;-42
2022/06/19 08:06:50;;;;;;;2.60;1.30;;;;;;;25.73;36.18;99595.24;1738777;82;20954;-42
2022/06/19 08:09:17;;;;;;;1.52;1.10;;;;;;;25.86;37.58;99593.73;1738858;82;20896;-42
2022/06/19 08:11:45;;;;;;;2.45;1.05;;;;;;;25.98;37.28;99585.92;1738905;82;20982;-42
2022/06/19 08:14:14;;;;;;;1.82;1.30;;;;;;;26.09;37.71;99585.50;1738875;82;20966;-42
2022/06/19 08:16:41;;;;;;;2.33;1.30;;;;;;;26.14;37.03;99577.30;1738790;82;21014;-42
2022/06/19 08:19:08;;;;;;;1.20;1.10;;;;;;;26.18;36.21;99575.78;1738580;82;21130;-42
2022/06/19 08:21:37;;;;;;;2.83;1.15;;;;;;;26.25;36.71;99578.28;1738461;82;20934;-42
2022/06/19 08:24:05;;;;;;;2.40;1.20;;;;;;;26.33;35.67;99578.94;1738650;82;20966;-42
2022/06/19 08:26:33;;;;;;;2.12;1.10;;;;;;;26.34;36.18;99588.03;1738685;82;20951;-42
2022/06/19 08:29:00;;;;;;;2.10;1.32;;;;;;;26.35;36.00;99590.97;1738538;82;20943;-42
2022/06/19 08:31:32;;;;;;;2.08;1.30;;;;;;;26.36;35.80;99581.41;1738498;82;21237;-42
2022/06/19 08:33:59;;;;;;;3.70;1.20;;;;;;;26.39;36.24;99574.30;1733424;82;21005;-42
2022/06/19 08:36:26;;;;;;;2.25;1.27;;;;;;;26.46;36.67;99566.89;1738589;82;20998;-42
2022/06/19 08:38:59;;;;;;;1.98;1.27;;;;;;;26.59;36.01;99572.45;1738523;82;20986;-42
2022/06/19 08:41:43;;;;;;;1.27;1.07;;;;;;;26.70;36.25;99575.55;1738557;81;21035;-42
2022/06/19 08:44:46;;;;;;;2.50;1.17;;;;;;;26.81;35.78;99575.09;1717338;81;21249;-42
2022/06/19 08:47:33;;;;;;;3.30;1.27;;;;;;;26.91;35.23;99575.89;1738552;82;21261;-42
2022/06/19 08:50:24;;;;;;;4.75;1.20;;;;;;;26.96;35.08;99564.14;1738597;82;21014;-42
2022/06/19 08:53:16;;;;;;;2.60;1.40;;;;;;;27.01;35.15;99569.86;1738417;82;21439;-42
2022/06/19 08:56:03;;;;;;;2.87;1.12;;;;;;;27.06;34.67;99567.06;1751658;81;22199;-42
2022/06/19 08:58:59;;;;;;;2.02;1.20;;;;;;;27.14;34.49;99564.88;1750344;81;21203;-42
2022/06/19 09:01:58;;;;;;;2.00;1.40;;;;;;;27.23;34.30;99564.85;1717613;83;21545;-42
2022/06/19 09:07:59;;;;;;;1.42;1.10;;;;;;;27.29;34.20;99561.44;1715454;83;21012;-42
2022/06/19 09:10:40;;;;;;;1.80;1.30;;;;;;;27.28;34.46;99559.89;1751377;81;21041;-42
2022/06/19 09:13:45;;;;;;;2.42;1.00;;;;;;;27.33;34.39;99564.83;1710317;83;21225;-42
2022/06/19 09:16:20;;;;;;;1.50;1.10;;;;;;;27.39;32.73;99549.03;1715029;83;21036;-42
2022/06/19 09:19:15;;;;;;;1.12;0.90;;;;;;;27.43;33.48;99546.23;1741896;81;21020;-42
2022/06/19 09:22:26;;;;;;;1.25;0.98;;;;;;;27.45;33.52;99544.37;1751264;82;21390;-42
2022/06/19 09:25:38;;;;;;;2.45;1.20;;;;;;;27.48;33.39;99536.47;1751268;82;21067;-42
2022/06/19 09:28:19;;;;;;;1.87;1.00;;;;;;;27.59;34.42;99535.37;1715117;83;21150;-42
2022/06/19 09:30:52;;;;;;;1.35;1.20;;;;;;;27.49;31.96;99507.41;1715098;83;21529;-42
2022/06/19 09:33:27;;;;;;;1.80;1.10;;;;;;;27.73;32.50;99538.88;1750976;81;21108;-42
2022/06/19 09:36:08;;;;;;;3.15;1.25;;;;;;;27.76;32.25;99537.14;1751024;82;21535;-42
2022/06/19 09:38:58;;;;;;;2.77;1.10;;;;;;;27.80;33.06;99525.20;1714877;83;21045;-43
2022/06/19 09:41:33;;;;;;;2.17;1.12;;;;;;;27.88;33.29;99531.36;1715049;83;21897;-42
2022/06/19 09:44:06;;;;;;;1.67;1.00;;;;;;;27.93;31.97;99530.69;1750881;81;21568;-42
2022/06/19 09:46:46;;;;;;;5.25;1.15;;;;;;;27.98;32.38;99532.83;1714060;83;21064;-42
2022/06/19 09:49:24;;;;;;;1.55;1.12;;;;;;;27.99;31.45;99526.02;1714676;83;21578;-42
2022/06/19 09:52:02;;;;;;;1.98;1.40;;;;;;;27.96;32.31;99521.39;1714576;83;21479;-42
2022/06/19 09:54:43;;;;;;;1.85;1.25;;;;;;;27.94;31.83;99519.70;1714416;83;21222;-42
2022/06/19 09:57:17;;;;;;;2.27;1.00;;;;;;;27.96;32.10;99522.02;1715109;83;20972;-42
2022/06/19 09:59:52;;;;;;;1.98;1.10;;;;;;;28.03;32.47;99523.81;1714913;83;21025;-42
2022/06/19 10:02:51;;;;;;;2.52;1.17;;;;;;;28.09;32.52;99528.89;1707661;83;21088;-42
2022/06/19 10:05:36;;;;;;;3.65;1.70;;;;;;;28.14;32.01;99523.94;1683720;84;21029;-42
2022/06/19 10:08:26;;;;;;;1.85;1.42;;;;;;;28.15;33.24;99533.23;1674521;85;21216;-42
2022/06/19 10:11:08;;;;;;;4.62;2.87;;;;;;;28.22;32.34;99532.11;1734694;81;21504;-42
2022/06/19 10:14:05;;;;;;;6.87;6.25;;;;;;;28.26;30.98;99527.12;1743040;82;20978;-42
2022/06/19 10:16:56;;;;;;;3.05;1.87;;;;;;;28.33;31.97;99530.92;1743054;81;21537;-42
2022/06/19 10:19:47;;;;;;;4.33;1.40;;;;;;;28.42;32.49;99536.42;1741675;81;21030;-42
2022/06/19 10:22:43;;;;;;;2.37;1.30;;;;;;;28.55;32.03;99541.14;1707459;84;22025;-42
2022/06/19 10:25:22;;;;;;;1.72;1.10;;;;;;;28.69;31.54;99538.23;1743096;82;21000;-42
2022/06/19 10:28:31;;;;;;;1.73;1.13;;;;;;;28.72;30.89;99540.86;1707522;84;21243;-42
2022/06/19 10:31:07;;;;;;;2.37;1.22;;;;;;;28.76;31.04;99537.25;1707628;84;21653;-42
2022/06/19 10:34:02;;;;;;;2.25;1.30;;;;;;;28.85;31.55;99530.84;1707059;84;21531;-42
2022/06/19 10:36:41;;;;;;;1.95;1.30;;;;;;;28.91;31.13;99530.29;1707228;84;21232;-42
2022/06/19 10:39:33;;;;;;;2.35;1.27;;;;;;;28.94;31.28;99541.28;1743148;81;21020;-42
2022/06/19 10:42:09;;;;;;;2.02;1.20;;;;;;;29.01;31.06;99534.53;1707250;83;21033;-42
2022/06/19 10:44:56;;;;;;;2.08;1.30;;;;;;;29.12;30.81;99542.34;1742825;81;21349;-42
2022/06/19 10:47:49;;;;;;;2.90;1.00;;;;;;;29.22;30.24;99529.20;1707206;83;21017;-42
2022/06/19 10:50:56;;;;;;;1.37;1.20;;;;;;;29.36;30.77;99533.25;1742829;81;20922;-43
2022/06/19 10:53:37;;;;;;;3.47;1.30;;;;;;;29.45;30.65;99523.36;1736379;82;20931;-42
2022/06/19 10:56:23;;;;;;;3.72;1.10;;;;;;;29.52;30.86;99528.56;1707144;83;21021;-43
2022/06/19 10:58:51;;;;;;;2.87;1.02;;;;;;;29.57;31.15;99525.09;1707251;84;21001;-42
2022/06/19 11:04:07;;;;;;;1.47;1.12;;;;;;;29.74;30.41;99513.52;1714954;83;21208;-42
2022/06/19 11:06:53;;;;;;;6.30;2.77;;;;;;;29.86;29.94;99507.47;1714682;83;21013;-42
2022/06/19 11:09:38;;;;;;;3.75;2.50;;;;;;;29.98;29.68;99512.59;1700620;83;21461;-42
2022/06/19 11:12:21;;;;;;;4.58;1.50;;;;;;;30.11;30.24;99508.84;1715192;83;21000;-42
2022/06/19 11:14:55;;;;;;;2.98;1.20;;;;;;;30.26;30.12;99512.30;1751403;81;21077;-42
2022/06/19 11:17:39;;;;;;;4.37;1.65;;;;;;;30.37;29.43;99501.26;1732824;82;21300;-42
2022/06/19 11:20:24;;;;;;;2.40;1.25;;;;;;;30.47;29.20;99501.28;1751105;82;21076;-43
2022/06/19 11:23:00;;;;;;;2.05;1.10;;;;;;;30.56;30.14;99497.55;1751443;82;21539;-42
2022/06/19 11:25:33;;;;;;;5.37;1.40;;;;;;;30.72;29.80;99489.19;1686870;83;21099;-42
2022/06/19 11:28:12;;;;;;;3.33;1.35;;;;;;;30.90;29.33;99486.05;1715130;83;21025;-42
2022/06/19 11:30:48;;;;;;;2.35;1.40;;;;;;;31.03;28.44;99481.61;1714776;83;21080;-42
2022/06/19 11:33:31;;;;;;;4.87;1.35;;;;;;;31.11;28.66;99493.78;1750902;81;21523;-43
2022/06/19 11:36:03;;;;;;;3.27;1.30;;;;;;;31.07;28.16;99494.02;1750934;82;21017;-43
2022/06/19 11:38:40;;;;;;;5.78;1.60;;;;;;;31.03;28.23;99472.47;1750913;82;21004;-43
2022/06/19 11:41:31;;;;;;;3.35;1.45;;;;;;;31.08;28.52;99480.15;1750846;82;21096;-43
2022/06/19 11:44:14;;;;;;;2.85;1.57;;;;;;;30.90;28.09;99439.23;1714849;83;21146;-43
2022/06/19 11:46:51;;;;;;;3.27;1.30;;;;;;;31.21;28.43;99474.89;1714836;83;21048;-43
2022/06/19 11:49:29;;;;;;;3.10;1.60;;;;;;;31.40;27.68;99469.68;1714920;83;20965;-43
2022/06/19 11:52:01;;;;;;;7.80;1.70;;;;;;;31.50;28.28;99476.00;1715018;83;21016;-43
2022/06/19 11:54:32;;;;;;;4.00;1.50;;;;;;;31.61;28.05;99469.73;1751264;82;21037;-43
2022/06/19 11:57:01;;;;;;;4.28;1.40;;;;;;;31.76;27.86;99467.49;1714896;83;21493;-43
2022/06/19 11:59:45;;;;;;;2.45;1.37;;;;;;;31.87;27.48;99469.59;1714689;83;21012;-43
2022/06/19 12:02:39;;;;;;;3.42;1.60;;;;;;;31.92;27.26;99464.64;1732074;81;20980;-44
2022/06/19 12:05:23;;;;;;;2.15;1.65;;;;;;;32.03;27.89;99473.11;1707263;84;21602;-43
2022/06/19 12:07:50;;;;;;;3.83;1.67;;;;;;;32.29;27.28;99469.52;1707327;84;21044;-43
2022/06/19 12:10:26;;;;;;;2.85;1.50;;;;;;;32.49;27.24;99467.78;1707370;84;21088;-43
2022/06/19 12:12:58;;;;;;;2.33;1.40;;;;;;;32.63;27.25;99466.81;1707317;84;20955;-43
2022/06/19 12:15:34;;;;;;;3.58;1.87;;;;;;;32.83;26.59;99470.03;1707422;84;21196;-43